createdAt,value
2018-05-12T00:01:43.911Z,98190.56
2018-05-12T00:04:12.303Z,98194.50
2018-05-12T00:06:41.346Z,98191.00
2018-05-12T00:09:14.636Z,98196.19
2018-05-12T00:11:43.714Z,98194.42
2018-05-12T00:14:13.013Z,98192.48
2018-05-12T00:16:41.352Z,98190.82
2018-05-12T00:19:09.741Z,98192.83
2018-05-12T00:21:39.107Z,98188.59
2018-05-12T00:24:07.408Z,98192.19
2018-05-12T00:26:36.072Z,98187.80
2018-05-12T00:29:04.444Z,98190.06
2018-05-12T00:31:33.875Z,98193.88
2018-05-12T00:34:03.098Z,98189.85
2018-05-12T00:36:33.181Z,98191.99
2018-05-12T00:39:01.484Z,98192.64
2018-05-12T00:41:29.792Z,98183.47
2018-05-12T00:43:58.107Z,98183.16
2018-05-12T00:46:26.396Z,98183.19
2018-05-12T00:48:54.766Z,98174.52
2018-05-12T00:51:23.540Z,98177.55
2018-05-12T00:53:51.851Z,98177.21
2018-05-12T00:56:20.153Z,98175.39
2018-05-12T00:58:48.497Z,98169.08
2018-05-12T01:01:17.474Z,98171.70
2018-05-12T01:03:45.782Z,98173.48
2018-05-12T01:06:14.956Z,98169.20
2018-05-12T01:08:43.259Z,98169.72
2018-05-12T01:11:12.985Z,98166.38
2018-05-12T01:13:41.607Z,98154.30
2018-05-12T01:16:09.883Z,98163.05
2018-05-12T01:18:38.774Z,98161.32
2018-05-12T01:21:07.123Z,98159.62
2018-05-12T01:23:36.171Z,98160.81
2018-05-12T01:26:04.462Z,98159.42
2018-05-12T01:28:32.871Z,98157.15
2018-05-12T01:31:01.167Z,98146.45
2018-05-12T01:33:29.699Z,98149.15
2018-05-12T01:35:58.220Z,98146.20
2018-05-12T01:38:26.634Z,98143.60
2018-05-12T01:40:54.925Z,98141.66
2018-05-12T01:43:23.632Z,98139.86
2018-05-12T01:45:51.931Z,98142.56
2018-05-12T01:48:20.258Z,98146.47
2018-05-12T01:50:48.667Z,98148.63
2018-05-12T01:53:17.215Z,98142.20
2018-05-12T01:55:45.507Z,98148.37
2018-05-12T01:58:13.838Z,98152.64
2018-05-12T02:00:42.122Z,98154.89
2018-05-12T02:03:10.475Z,98155.14
2018-05-12T02:05:39.333Z,98164.16
2018-05-12T02:08:08.027Z,98161.78
2018-05-12T02:10:37.815Z,98161.67
2018-05-12T02:13:06.144Z,98169.88
2018-05-12T02:15:35.079Z,98174.73
2018-05-12T02:18:03.398Z,98170.80
2018-05-12T02:20:31.723Z,98179.86
2018-05-12T02:23:00.644Z,98174.48
2018-05-12T02:25:29.202Z,98178.17
2018-05-12T02:27:58.278Z,98175.61
2018-05-12T02:30:27.343Z,98179.28
2018-05-12T02:32:56.453Z,98182.27
2018-05-12T02:35:24.739Z,98178.56
2018-05-12T02:37:53.034Z,98180.18
2018-05-12T02:40:21.356Z,98179.66
2018-05-12T02:42:49.656Z,98177.27
2018-05-12T02:45:18.515Z,98173.20
2018-05-12T02:47:48.203Z,98168.94
2018-05-12T02:50:16.565Z,98167.20
2018-05-12T02:52:45.471Z,98164.98
2018-05-12T02:55:14.266Z,98165.09
2018-05-12T02:57:44.036Z,98167.94
2018-05-12T03:00:12.481Z,98163.34
2018-05-12T03:02:40.954Z,98168.11
2018-05-12T03:05:10.279Z,98160.68
2018-05-12T03:07:38.638Z,98166.19
2018-05-12T03:10:07.615Z,98175.97
2018-05-12T03:12:35.929Z,98167.70
2018-05-12T03:15:04.212Z,98174.73
2018-05-12T03:17:32.542Z,98170.92
2018-05-12T03:20:00.822Z,98173.34
2018-05-12T03:22:29.142Z,98175.09
2018-05-12T03:24:57.911Z,98176.50
2018-05-12T03:27:26.198Z,98171.80
2018-05-12T03:29:54.530Z,98169.42
2018-05-12T03:32:23.015Z,98177.95
2018-05-12T03:34:51.297Z,98171.67
2018-05-12T03:37:19.602Z,98175.39
2018-05-12T03:39:48.390Z,98177.09
2018-05-12T03:42:17.135Z,98179.11
2018-05-12T03:44:45.963Z,98178.68
2018-05-12T03:47:14.774Z,98181.26
2018-05-12T03:49:43.187Z,98181.55
2018-05-12T03:52:11.475Z,98181.52
2018-05-12T03:54:39.763Z,98177.90
2018-05-12T03:57:08.159Z,98183.86
2018-05-12T03:59:36.507Z,98186.67
2018-05-12T04:02:05.286Z,98189.57
2018-05-12T04:04:51.327Z,98193.41
2018-05-12T04:07:37.750Z,98199.70
2018-05-12T04:10:24.408Z,98204.38
2018-05-12T04:12:53.558Z,98204.70
2018-05-12T04:15:22.380Z,98205.73
2018-05-12T04:17:50.722Z,98204.97
2018-05-12T04:20:19.003Z,98197.59
2018-05-12T04:22:47.495Z,98200.33
2018-05-12T04:25:16.569Z,98200.48
2018-05-12T04:27:46.023Z,98202.87
2018-05-12T04:30:14.319Z,98201.80
2018-05-12T04:32:42.631Z,98203.45
2018-05-12T04:35:11.271Z,98210.43
2018-05-12T04:37:39.822Z,98214.55
2018-05-12T04:40:08.112Z,98205.45
2018-05-12T04:42:36.401Z,98212.88
2018-05-12T04:45:04.729Z,98214.19
2018-05-12T04:47:33.777Z,98212.69
2018-05-12T04:50:02.075Z,98217.42
2018-05-12T04:52:31.931Z,98216.50
2018-05-12T04:55:00.214Z,98210.70
2018-05-12T04:57:28.501Z,98212.50
2018-05-12T04:59:56.819Z,98210.33
2018-05-12T05:02:25.706Z,98209.09
2018-05-12T05:04:54.595Z,98205.55
2018-05-12T05:07:22.884Z,98210.23
2018-05-12T05:09:51.402Z,98208.27
2018-05-12T05:12:20.267Z,98201.22
2018-05-12T05:14:48.555Z,98200.56
2018-05-12T05:17:17.562Z,98195.42
2018-05-12T05:19:45.951Z,98193.81
2018-05-12T05:22:14.426Z,98195.88
2018-05-12T05:24:42.711Z,98187.70
2018-05-12T05:27:11.414Z,98191.07
2018-05-12T05:29:40.794Z,98192.73
2018-05-12T05:32:09.899Z,98186.23
2018-05-12T05:34:38.211Z,98187.16
2018-05-12T05:37:07.068Z,98181.27
2018-05-12T05:39:35.632Z,98183.52
2018-05-12T05:42:03.919Z,98186.27
2018-05-12T05:44:32.260Z,98190.07
2018-05-12T05:47:01.127Z,98191.23
2018-05-12T05:49:29.518Z,98189.36
2018-05-12T05:51:57.802Z,98183.55
2018-05-12T05:54:26.246Z,98184.27
2018-05-12T05:56:55.078Z,98179.35
2018-05-12T05:59:23.383Z,98184.42
2018-05-12T06:01:52.143Z,98186.73
2018-05-12T06:04:21.810Z,98183.77
2018-05-12T06:06:51.448Z,98178.76
2018-05-12T06:09:19.991Z,98180.72
2018-05-12T06:11:48.535Z,98172.25
2018-05-12T06:14:17.082Z,98174.95
2018-05-12T06:16:46.076Z,98177.39
2018-05-12T06:19:14.898Z,98174.63
2018-05-12T06:21:43.778Z,98166.73
2018-05-12T06:24:12.109Z,98177.03
2018-05-12T06:26:40.397Z,98175.49
2018-05-12T06:29:09.125Z,98175.64
2018-05-12T06:31:37.890Z,98177.15
2018-05-12T06:34:06.180Z,98174.32
2018-05-12T06:36:34.846Z,98174.41
2018-05-12T06:39:03.344Z,98174.27
2018-05-12T06:41:31.630Z,98179.13
2018-05-12T06:44:00.107Z,98177.88
2018-05-12T06:46:28.458Z,98175.06
2018-05-12T06:48:56.874Z,98176.55
2018-05-12T06:51:26.474Z,98179.80
2018-05-12T06:53:55.666Z,98178.06
2018-05-12T06:56:24.086Z,98177.63
2018-05-12T06:58:52.426Z,98172.98
2018-05-12T07:01:21.530Z,98178.91
2018-05-12T07:03:50.148Z,98178.19
2018-05-12T07:06:18.430Z,98175.83
2018-05-12T07:08:47.762Z,98181.39
2018-05-12T07:11:16.167Z,98177.78
2018-05-12T07:13:44.830Z,98178.80
2018-05-12T07:16:13.311Z,98180.45
2018-05-12T07:18:41.599Z,98178.58
2018-05-12T07:21:09.910Z,98166.38
2018-05-12T07:23:38.399Z,98156.63
2018-05-12T07:26:06.814Z,98160.70
2018-05-12T07:28:35.765Z,98153.91
2018-05-12T07:31:05.105Z,98152.75
2018-05-12T07:33:33.638Z,98147.20
2018-05-12T07:36:02.328Z,98144.89
2018-05-12T07:38:31.243Z,98138.92
2018-05-12T07:40:59.567Z,98130.96
2018-05-12T07:43:27.858Z,98123.53
2018-05-12T07:45:56.847Z,98124.06
2018-05-12T07:48:25.938Z,98118.81
2018-05-12T07:50:54.222Z,98118.91
2018-05-12T07:53:22.555Z,98118.63
2018-05-12T07:55:50.847Z,98113.92
2018-05-12T07:58:19.887Z,98118.06
2018-05-12T08:00:49.366Z,98114.61
2018-05-12T08:03:17.891Z,98107.98
2018-05-12T08:05:46.962Z,98109.51
2018-05-12T08:08:15.304Z,98105.32
2018-05-12T08:10:43.595Z,98111.73
2018-05-12T08:13:11.887Z,98109.75
2018-05-12T08:15:40.415Z,98109.13
2018-05-12T08:18:08.794Z,98107.25
2018-05-12T08:20:37.202Z,98108.80
2018-05-12T08:23:05.436Z,98112.29
2018-05-12T08:25:34.491Z,98106.31
2018-05-12T08:28:02.836Z,98100.81
2018-05-12T08:30:32.086Z,98095.73
2018-05-12T08:33:00.666Z,98086.60
2018-05-12T08:35:28.950Z,98084.75
2018-05-12T08:37:57.288Z,98085.03
2018-05-12T08:40:25.686Z,98076.61
2018-05-12T08:42:53.962Z,98070.83
2018-05-12T08:45:22.267Z,98072.84
2018-05-12T08:47:50.550Z,98056.27
2018-05-12T08:50:18.865Z,98059.89
2018-05-12T08:52:47.154Z,98053.35
2018-05-12T08:55:15.442Z,98047.34
2018-05-12T08:57:43.766Z,98047.19
2018-05-12T09:00:13.039Z,98048.94
2018-05-12T09:02:41.877Z,98047.35
2018-05-12T09:05:10.211Z,98048.73
2018-05-12T09:07:38.738Z,98050.29
2018-05-12T09:10:07.023Z,98042.86
2018-05-12T09:12:36.358Z,98041.67
2018-05-12T09:15:04.646Z,98036.31
2018-05-12T09:17:33.129Z,98038.52
2018-05-12T09:20:01.467Z,98040.84
2018-05-12T09:22:30.050Z,98046.20
2018-05-12T09:24:58.346Z,98038.81
2018-05-12T09:27:26.826Z,98034.79
2018-05-12T09:29:55.183Z,98032.70
2018-05-12T09:32:23.895Z,98029.89
2018-05-12T09:34:52.301Z,98035.13
2018-05-12T09:37:20.633Z,98023.09
2018-05-12T09:39:49.242Z,98014.70
2018-05-12T09:42:17.658Z,98010.02
2018-05-12T09:44:46.135Z,98003.73
2018-05-12T09:47:14.370Z,98001.28
2018-05-12T09:49:42.951Z,98001.28
2018-05-12T09:52:11.536Z,98000.31
2018-05-12T09:54:40.595Z,97995.13
2018-05-12T09:57:09.294Z,97992.09
2018-05-12T09:59:37.615Z,97990.13
2018-05-12T10:02:06.190Z,97991.52
2018-05-12T10:04:34.733Z,97981.92
2018-05-12T10:07:03.026Z,97980.32
2018-05-12T10:09:31.341Z,97976.25
2018-05-12T10:11:59.698Z,97978.26
2018-05-12T10:14:28.485Z,97973.50
2018-05-12T10:16:56.775Z,97969.02
2018-05-12T10:19:25.196Z,97964.94
2018-05-12T10:21:53.414Z,97956.61
2018-05-12T10:24:21.743Z,97950.52
2018-05-12T10:26:50.594Z,97947.35
2018-05-12T10:29:18.886Z,97937.25
2018-05-12T10:31:47.166Z,97943.48
2018-05-12T10:34:15.496Z,97940.33
2018-05-12T10:36:44.737Z,97932.43
2018-05-12T10:39:13.609Z,97925.32
2018-05-12T10:41:41.916Z,97927.11
2018-05-12T10:44:10.202Z,97919.30
2018-05-12T10:46:39.298Z,97923.27
2018-05-12T10:49:08.162Z,97918.46
2018-05-12T10:51:36.670Z,97916.25
2018-05-12T10:54:05.016Z,97916.24
2018-05-12T10:56:33.571Z,97902.03
2018-05-12T10:59:01.855Z,97905.80
2018-05-12T11:01:30.171Z,97895.70
2018-05-12T11:03:58.677Z,97886.58
2018-05-12T11:06:26.995Z,97891.14
2018-05-12T11:08:55.353Z,97887.31
2018-05-12T11:11:23.597Z,97882.19
2018-05-12T11:13:51.880Z,97897.37
2018-05-12T11:16:20.214Z,97874.11
2018-05-12T11:18:48.507Z,97872.78
2018-05-12T11:21:16.799Z,97870.77
2018-05-12T11:23:45.111Z,97857.06
2018-05-12T11:26:13.410Z,97849.86
2018-05-12T11:28:41.690Z,97848.12
2018-05-12T11:31:10.016Z,97841.28
2018-05-12T11:33:38.387Z,97842.45
2018-05-12T11:36:07.151Z,97840.43
2018-05-12T11:38:35.519Z,97828.41
2018-05-12T11:41:03.820Z,97827.25
2018-05-12T11:43:32.155Z,97824.35
2018-05-12T11:46:00.435Z,97819.77
2018-05-12T11:48:28.856Z,97823.58
2018-05-12T11:50:57.178Z,97824.52
2018-05-12T11:53:25.531Z,97813.70
2018-05-12T11:55:54.580Z,97816.72
2018-05-12T11:58:22.969Z,97817.89
2018-05-12T12:00:52.004Z,97814.83
2018-05-12T12:03:21.791Z,97803.81
2018-05-12T12:05:50.083Z,97800.45
2018-05-12T12:08:18.423Z,97802.29
2018-05-12T12:10:47.142Z,97796.42
2018-05-12T12:13:16.080Z,97787.65
2018-05-12T12:15:44.806Z,97785.54
2018-05-12T12:18:13.566Z,97779.82
2018-05-12T12:20:41.856Z,97785.02
2018-05-12T12:23:10.274Z,97782.50
2018-05-12T12:25:38.495Z,97771.28
2018-05-12T12:28:06.772Z,97779.94
2018-05-12T12:30:35.111Z,97771.05
2018-05-12T12:33:03.404Z,97772.09
2018-05-12T12:35:32.035Z,97764.00
2018-05-12T12:38:01.534Z,97759.61
2018-05-12T12:40:30.400Z,97759.02
2018-05-12T12:42:58.886Z,97762.33
2018-05-12T12:45:27.227Z,97759.66
2018-05-12T12:47:55.520Z,97747.44
2018-05-12T12:50:23.808Z,97746.83
2018-05-12T12:52:52.164Z,97742.58
2018-05-12T12:55:20.520Z,97739.11
2018-05-12T12:57:48.867Z,97740.48
2018-05-12T13:00:17.919Z,97738.53
2018-05-12T13:02:46.284Z,97725.75
2018-05-12T13:05:14.568Z,97728.79
2018-05-12T13:07:43.936Z,97728.08
2018-05-12T13:10:12.302Z,97719.75
2018-05-12T13:12:40.584Z,97720.14
2018-05-12T13:15:08.968Z,97711.98
2018-05-12T13:17:37.435Z,97720.34
2018-05-12T13:20:05.724Z,97717.20
2018-05-12T13:22:34.021Z,97711.64
2018-05-12T13:25:02.891Z,97700.10
2018-05-12T13:27:31.404Z,97698.70
2018-05-12T13:29:59.695Z,97693.52
2018-05-12T13:32:28.706Z,97695.78
2018-05-12T13:34:57.092Z,97685.16
2018-05-12T13:37:25.380Z,97690.22
2018-05-12T13:39:53.739Z,97689.61
2018-05-12T13:42:22.825Z,97682.13
2018-05-12T13:44:52.387Z,97681.04
2018-05-12T13:47:21.387Z,97683.08
2018-05-12T13:49:49.748Z,97678.73
2018-05-12T13:52:18.066Z,97680.20
2018-05-12T13:54:46.880Z,97676.23
2018-05-12T13:57:15.408Z,97677.19
2018-05-12T13:59:43.743Z,97675.23
2018-05-12T14:02:13.032Z,97670.19
2018-05-12T14:04:41.785Z,97664.97
2018-05-12T14:07:10.434Z,97674.08
2018-05-12T14:09:38.715Z,97667.09
2018-05-12T14:12:07.012Z,97660.17
2018-05-12T14:14:36.607Z,97653.60
2018-05-12T14:17:04.940Z,97649.42
2018-05-12T14:19:33.985Z,97648.58
2018-05-12T14:22:02.287Z,97649.70
2018-05-12T14:24:31.222Z,97641.19
2018-05-12T14:26:59.562Z,97637.97
2018-05-12T14:29:27.847Z,97633.38
2018-05-12T14:31:56.938Z,97636.93
2018-05-12T14:34:25.312Z,97626.81
2018-05-12T14:36:53.611Z,97631.36
2018-05-12T14:39:21.926Z,97627.26
2018-05-12T14:41:50.235Z,97630.64
2018-05-12T14:44:18.518Z,97626.47
2018-05-12T14:46:46.801Z,97629.78
2018-05-12T14:49:15.384Z,97623.84
2018-05-12T14:51:44.430Z,97620.98
2018-05-12T14:54:12.847Z,97619.06
2018-05-12T14:56:41.422Z,97618.89
2018-05-12T14:59:09.707Z,97612.62
2018-05-12T15:01:37.998Z,97617.71
2018-05-12T15:04:06.571Z,97616.55
2018-05-12T15:06:35.156Z,97609.28
2018-05-12T15:09:03.446Z,97610.39
2018-05-12T15:11:31.858Z,97609.72
2018-05-12T15:14:00.155Z,97608.55
2018-05-12T15:16:28.566Z,97595.72
2018-05-12T15:18:57.187Z,97594.56
2018-05-12T15:21:25.585Z,97597.97
2018-05-12T15:23:54.098Z,97598.21
2018-05-12T15:26:22.419Z,97594.77
2018-05-12T15:28:51.265Z,97587.52
2018-05-12T15:31:20.250Z,97584.11
2018-05-12T15:33:48.608Z,97589.67
2018-05-12T15:36:17.717Z,97581.57
2018-05-12T15:38:46.462Z,97579.88
2018-05-12T15:41:15.063Z,97576.16
2018-05-12T15:43:43.625Z,97572.08
2018-05-12T15:46:11.943Z,97573.50
2018-05-12T15:48:40.241Z,97571.73
2018-05-12T15:51:08.528Z,97570.84
2018-05-12T15:53:36.847Z,97570.72
2018-05-12T15:56:05.131Z,97572.48
2018-05-12T15:58:33.447Z,97567.54
2018-05-12T16:01:01.786Z,97562.94
2018-05-12T16:03:30.077Z,97561.31
2018-05-12T16:05:58.680Z,97559.83
2018-05-12T16:08:27.326Z,97560.46
2018-05-12T16:10:55.615Z,97562.75
2018-05-12T16:13:23.911Z,97560.67
2018-05-12T16:15:52.747Z,97550.58
2018-05-12T16:18:21.322Z,97553.56
2018-05-12T16:20:49.599Z,97557.56
2018-05-12T16:23:18.476Z,97547.55
2018-05-12T16:25:46.794Z,97542.24
2018-05-12T16:28:15.062Z,97540.85
2018-05-12T16:30:43.379Z,97543.86
2018-05-12T16:33:12.001Z,97541.13
2018-05-12T16:35:40.275Z,97537.16
2018-05-12T16:38:09.208Z,97533.84
2018-05-12T16:40:38.178Z,97533.71
2018-05-12T16:43:06.454Z,97529.33
2018-05-12T16:45:34.883Z,97532.63
2018-05-12T16:48:03.290Z,97532.02
2018-05-12T16:50:31.604Z,97530.86
2018-05-12T16:53:01.442Z,97527.64
2018-05-12T16:55:29.926Z,97533.42
2018-05-12T16:57:58.207Z,97525.55
2018-05-12T17:00:26.515Z,97522.10
2018-05-12T17:02:54.808Z,97525.00
2018-05-12T17:05:23.342Z,97523.47
2018-05-12T17:07:52.194Z,97520.94
2018-05-12T17:10:20.482Z,97522.47
2018-05-12T17:12:48.823Z,97522.15
2018-05-12T17:15:17.115Z,97521.89
2018-05-12T17:17:45.423Z,97524.80
2018-05-12T17:20:13.853Z,97521.92
2018-05-12T17:22:42.607Z,97523.16
2018-05-12T17:25:11.394Z,97527.02
2018-05-12T17:27:40.098Z,97528.34
2018-05-12T17:30:08.955Z,97526.59
2018-05-12T17:32:37.583Z,97523.61
2018-05-12T17:35:06.380Z,97527.31
2018-05-12T17:37:34.991Z,97523.31
2018-05-12T17:40:03.274Z,97522.23
2018-05-12T17:42:31.570Z,97522.52
2018-05-12T17:44:59.854Z,97516.03
2018-05-12T17:47:29.351Z,97517.03
2018-05-12T17:49:58.074Z,97518.42
2018-05-12T17:52:26.316Z,97516.20
2018-05-12T17:54:54.659Z,97517.28
2018-05-12T17:57:23.088Z,97518.61
2018-05-12T17:59:51.707Z,97518.55
2018-05-12T18:02:20.459Z,97512.62
2018-05-12T18:04:49.275Z,97518.55
2018-05-12T18:07:17.567Z,97516.64
2018-05-12T18:09:45.903Z,97512.62
2018-05-12T18:12:14.944Z,97517.06
2018-05-12T18:14:43.232Z,97511.11
2018-05-12T18:17:11.611Z,97523.52
2018-05-12T18:19:40.038Z,97521.45
2018-05-12T18:22:08.326Z,97517.27
2018-05-12T18:24:36.941Z,97517.13
2018-05-12T18:27:05.229Z,97512.56
2018-05-12T18:29:33.510Z,97505.31
2018-05-12T18:32:01.846Z,97502.25
2018-05-12T18:34:30.403Z,97507.13
2018-05-12T18:36:58.687Z,97512.09
2018-05-12T18:39:27.655Z,97510.89
2018-05-12T18:41:55.983Z,97512.53
2018-05-12T18:44:24.271Z,97504.22
2018-05-12T18:46:52.575Z,97510.48
2018-05-12T18:49:21.543Z,97512.39
2018-05-12T18:51:49.835Z,97515.36
2018-05-12T18:54:18.407Z,97519.73
2018-05-12T18:56:47.027Z,97515.53
2018-05-12T18:59:15.317Z,97522.08
2018-05-12T19:01:43.643Z,97526.73
2018-05-12T19:04:11.931Z,97526.36
2018-05-12T19:06:40.211Z,97528.73
2018-05-12T19:09:08.559Z,97529.23
2018-05-12T19:11:37.383Z,97528.12
2018-05-12T19:14:05.662Z,97536.08
2018-05-12T19:16:33.967Z,97530.05
2018-05-12T19:19:02.259Z,97533.76
2018-05-12T19:21:30.910Z,97529.73
2018-05-12T19:23:59.408Z,97529.73
2018-05-12T19:26:28.463Z,97535.16
2018-05-12T19:28:57.474Z,97532.63
2018-05-12T19:31:26.342Z,97531.99
2018-05-12T19:33:54.696Z,97535.27
2018-05-12T19:36:23.146Z,97533.78
2018-05-12T19:38:51.478Z,97534.06
2018-05-12T19:41:19.759Z,97533.46
2018-05-12T19:43:48.136Z,97535.54
2018-05-12T19:46:16.880Z,97535.83
2018-05-12T19:48:45.158Z,97542.20
2018-05-12T19:51:13.442Z,97537.27
2018-05-12T19:53:42.271Z,97533.38
2018-05-12T19:56:10.554Z,97535.69
2018-05-12T19:58:38.886Z,97541.77
2018-05-12T20:01:07.173Z,97536.36
2018-05-12T20:03:35.465Z,97537.77
2018-05-12T20:06:03.866Z,97536.76
2018-05-12T20:08:32.347Z,97535.71
2018-05-12T20:11:00.679Z,97538.95
2018-05-12T20:13:29.004Z,97537.28
2018-05-12T20:15:58.684Z,97541.76
2018-05-12T20:18:27.087Z,97538.94
2018-05-12T20:20:55.967Z,97538.55
2018-05-12T20:23:24.250Z,97534.78
2018-05-12T20:25:52.543Z,97527.30
2018-05-12T20:28:21.069Z,97531.57
2018-05-12T20:30:50.791Z,97531.44
2018-05-12T20:33:19.066Z,97535.05
2018-05-12T20:35:47.643Z,97532.60
2018-05-12T20:38:15.939Z,97526.80
2018-05-12T20:40:44.988Z,97525.64
2018-05-12T20:43:14.078Z,97520.22
2018-05-12T20:45:42.356Z,97516.20
2018-05-12T20:48:11.414Z,97519.70
2018-05-12T20:50:39.734Z,97524.94
2018-05-12T20:53:08.791Z,97523.75
2018-05-12T20:55:38.175Z,97526.94
2018-05-12T20:58:06.810Z,97533.27
2018-05-12T21:00:35.095Z,97530.16
2018-05-12T21:03:03.436Z,97528.06
2018-05-12T21:05:32.078Z,97530.68
2018-05-12T21:08:00.368Z,97526.56
2018-05-12T21:10:28.879Z,97533.39
2018-05-12T21:12:57.899Z,97523.81
2018-05-12T21:15:26.294Z,97519.30
2018-05-12T21:17:55.825Z,97521.73
2018-05-12T21:20:24.110Z,97520.06
2018-05-12T21:22:52.386Z,97517.63
2018-05-12T21:25:20.702Z,97520.95
2018-05-12T21:27:48.986Z,97525.06
2018-05-12T21:30:17.459Z,97521.58
2018-05-12T21:32:45.807Z,97517.60
2018-05-12T21:35:14.091Z,97520.95
2018-05-12T21:37:42.505Z,97520.30
2018-05-12T21:40:10.847Z,97524.69
2018-05-12T21:42:39.851Z,97522.64
2018-05-12T21:45:08.134Z,97525.86
2018-05-12T21:47:36.839Z,97519.95
2018-05-12T21:50:05.399Z,97520.59
2018-05-12T21:52:33.686Z,97522.91
2018-05-12T21:55:02.026Z,97521.70
2018-05-12T21:57:30.334Z,97515.83
2018-05-12T21:59:58.694Z,97521.38
2018-05-12T22:02:27.033Z,97517.61
2018-05-12T22:04:55.323Z,97520.33
2018-05-12T22:07:23.620Z,97528.27
2018-05-12T22:09:52.286Z,97535.94
2018-05-12T22:12:20.597Z,97539.17
2018-05-12T22:14:48.887Z,97539.78
2018-05-12T22:17:17.905Z,97538.63
2018-05-12T22:19:46.195Z,97538.27
2018-05-12T22:22:14.639Z,97535.70
2018-05-12T22:24:43.055Z,97534.78
2018-05-12T22:27:11.334Z,97533.24
2018-05-12T22:29:39.618Z,97525.95
2018-05-12T22:32:08.311Z,97528.34
2018-05-12T22:34:36.845Z,97529.83
2018-05-12T22:37:05.134Z,97526.53
2018-05-12T22:39:33.706Z,97532.86
2018-05-12T22:42:02.250Z,97531.91
2018-05-12T22:44:30.550Z,97539.75
2018-05-12T22:46:58.883Z,97533.95
2018-05-12T22:49:27.314Z,97532.94
2018-05-12T22:51:55.601Z,97536.64
2018-05-12T22:54:23.942Z,97540.47
2018-05-12T22:56:52.234Z,97539.83
2018-05-12T22:59:20.528Z,97529.13
2018-05-12T23:01:48.838Z,97531.05
2018-05-12T23:04:17.113Z,97529.77
2018-05-12T23:06:45.390Z,97525.10
2018-05-12T23:09:13.728Z,97522.73
2018-05-12T23:11:42.014Z,97527.98
2018-05-12T23:14:10.304Z,97522.08
2018-05-12T23:16:38.618Z,97520.09
2018-05-12T23:19:06.900Z,97515.11
2018-05-12T23:21:35.454Z,97514.62
2018-05-12T23:24:04.011Z,97518.67
2018-05-12T23:26:32.293Z,97513.76
2018-05-12T23:29:00.579Z,97514.94
2018-05-12T23:31:28.912Z,97511.95
2018-05-12T23:33:57.335Z,97512.14
2018-05-12T23:36:25.620Z,97513.11
2018-05-12T23:38:53.955Z,97512.19
2018-05-12T23:41:22.355Z,97508.71
2018-05-12T23:43:50.635Z,97509.49
2018-05-12T23:46:20.142Z,97508.14
2018-05-12T23:48:48.438Z,97508.61
2018-05-12T23:51:16.741Z,97504.09
2018-05-12T23:53:45.138Z,97505.50
2018-05-12T23:56:14.087Z,97501.85
2018-05-12T23:58:42.573Z,97502.98
